sensor_id;sensor_type;location;lat;lon;timestamp;P1;durP1;ratioP1;P2;durP2;ratioP2
63536;SDS011;49686;51.880;5.632;2022-08-03T00:02:13;11.38;;;3.50;;
63536;SDS011;49686;51.880;5.632;2022-08-03T00:04:40;8.23;;;3.30;;
63536;SDS011;49686;51.880;5.632;2022-08-03T00:07:09;8.10;;;3.50;;
63536;SDS011;49686;51.880;5.632;2022-08-03T00:09:36;8.45;;;3.20;;
63536;SDS011;49686;51.880;5.632;2022-08-03T00:12:03;12.20;;;3.55;;
63536;SDS011;49686;51.880;5.632;2022-08-03T00:14:31;8.20;;;3.53;;
63536;SDS011;49686;51.880;5.632;2022-08-03T00:16:58;10.55;;;3.38;;
63536;SDS011;49686;51.880;5.632;2022-08-03T00:19:24;8.57;;;3.55;;
63536;SDS011;49686;51.880;5.632;2022-08-03T00:21:52;10.73;;;3.30;;
63536;SDS011;49686;51.880;5.632;2022-08-03T00:24:20;8.13;;;3.67;;
63536;SDS011;49686;51.880;5.632;2022-08-03T00:26:47;8.27;;;3.28;;
63536;SDS011;49686;51.880;5.632;2022-08-03T00:29:14;14.27;;;3.67;;
63536;SDS011;49686;51.880;5.632;2022-08-03T00:31:41;13.35;;;3.58;;
63536;SDS011;49686;51.880;5.632;2022-08-03T00:34:18;8.90;;;3.40;;
63536;SDS011;49686;51.880;5.632;2022-08-03T00:37:04;10.40;;;3.72;;
63536;SDS011;49686;51.880;5.632;2022-08-03T00:39:33;8.77;;;3.55;;
63536;SDS011;49686;51.880;5.632;2022-08-03T00:42:01;7.25;;;3.75;;
63536;SDS011;49686;51.880;5.632;2022-08-03T00:44:28;9.20;;;3.55;;
63536;SDS011;49686;51.880;5.632;2022-08-03T00:46:55;11.65;;;4.00;;
63536;SDS011;49686;51.880;5.632;2022-08-03T00:49:22;8.05;;;3.65;;
63536;SDS011;49686;51.880;5.632;2022-08-03T00:51:49;14.13;;;3.42;;
63536;SDS011;49686;51.880;5.632;2022-08-03T00:54:17;7.25;;;3.63;;
63536;SDS011;49686;51.880;5.632;2022-08-03T00:56:46;11.07;;;3.83;;
63536;SDS011;49686;51.880;5.632;2022-08-03T00:59:26;9.80;;;3.60;;
63536;SDS011;49686;51.880;5.632;2022-08-03T01:01:53;11.13;;;3.80;;
63536;SDS011;49686;51.880;5.632;2022-08-03T01:04:20;15.55;;;3.95;;
63536;SDS011;49686;51.880;5.632;2022-08-03T01:06:49;11.85;;;4.07;;
63536;SDS011;49686;51.880;5.632;2022-08-03T01:09:25;7.00;;;3.70;;
63536;SDS011;49686;51.880;5.632;2022-08-03T01:12:05;11.98;;;4.30;;
63536;SDS011;49686;51.880;5.632;2022-08-03T01:14:37;10.23;;;3.97;;
63536;SDS011;49686;51.880;5.632;2022-08-03T01:17:12;14.43;;;4.53;;
63536;SDS011;49686;51.880;5.632;2022-08-03T01:19:45;9.00;;;3.58;;
63536;SDS011;49686;51.880;5.632;2022-08-03T01:22:25;13.52;;;4.25;;
63536;SDS011;49686;51.880;5.632;2022-08-03T01:25:05;9.55;;;3.65;;
63536;SDS011;49686;51.880;5.632;2022-08-03T01:27:50;7.95;;;3.53;;
63536;SDS011;49686;51.880;5.632;2022-08-03T01:30:26;8.80;;;3.70;;
63536;SDS011;49686;51.880;5.632;2022-08-03T01:32:57;10.70;;;4.43;;
63536;SDS011;49686;51.880;5.632;2022-08-03T01:35:31;14.75;;;4.18;;
63536;SDS011;49686;51.880;5.632;2022-08-03T01:38:06;10.73;;;4.28;;
63536;SDS011;49686;51.880;5.632;2022-08-03T01:40:38;8.40;;;4.35;;
63536;SDS011;49686;51.880;5.632;2022-08-03T01:43:08;10.70;;;4.60;;
63536;SDS011;49686;51.880;5.632;2022-08-03T01:46:01;13.10;;;4.00;;
63536;SDS011;49686;51.880;5.632;2022-08-03T01:48:29;8.70;;;4.00;;
63536;SDS011;49686;51.880;5.632;2022-08-03T01:50:57;9.88;;;4.50;;
63536;SDS011;49686;51.880;5.632;2022-08-03T01:53:25;11.48;;;4.30;;
63536;SDS011;49686;51.880;5.632;2022-08-03T01:55:54;10.10;;;4.43;;
63536;SDS011;49686;51.880;5.632;2022-08-03T01:58:24;8.32;;;3.63;;
63536;SDS011;49686;51.880;5.632;2022-08-03T02:00:52;14.45;;;4.82;;
63536;SDS011;49686;51.880;5.632;2022-08-03T02:03:23;11.30;;;4.25;;
63536;SDS011;49686;51.880;5.632;2022-08-03T02:05:50;15.38;;;4.30;;
63536;SDS011;49686;51.880;5.632;2022-08-03T02:08:39;12.98;;;4.32;;
63536;SDS011;49686;51.880;5.632;2022-08-03T02:11:08;10.10;;;4.10;;
63536;SDS011;49686;51.880;5.632;2022-08-03T02:13:35;11.48;;;4.43;;
63536;SDS011;49686;51.880;5.632;2022-08-03T02:16:04;9.90;;;4.53;;
63536;SDS011;49686;51.880;5.632;2022-08-03T02:18:33;10.10;;;4.97;;
63536;SDS011;49686;51.880;5.632;2022-08-03T02:21:02;17.27;;;5.05;;
63536;SDS011;49686;51.880;5.632;2022-08-03T02:23:37;13.30;;;5.32;;
63536;SDS011;49686;51.880;5.632;2022-08-03T02:26:06;11.88;;;4.43;;
63536;SDS011;49686;51.880;5.632;2022-08-03T02:28:42;10.63;;;4.18;;
63536;SDS011;49686;51.880;5.632;2022-08-03T02:31:17;10.02;;;5.00;;
63536;SDS011;49686;51.880;5.632;2022-08-03T02:33:50;7.90;;;4.57;;
63536;SDS011;49686;51.880;5.632;2022-08-03T02:36:19;13.45;;;4.43;;
63536;SDS011;49686;51.880;5.632;2022-08-03T02:38:51;12.85;;;4.72;;
63536;SDS011;49686;51.880;5.632;2022-08-03T02:41:23;9.60;;;5.13;;
63536;SDS011;49686;51.880;5.632;2022-08-03T02:43:56;9.63;;;4.97;;
63536;SDS011;49686;51.880;5.632;2022-08-03T02:46:33;11.93;;;4.90;;
63536;SDS011;49686;51.880;5.632;2022-08-03T02:49:04;11.50;;;4.60;;
63536;SDS011;49686;51.880;5.632;2022-08-03T02:51:52;18.20;;;5.00;;
63536;SDS011;49686;51.880;5.632;2022-08-03T02:54:22;10.52;;;5.00;;
63536;SDS011;49686;51.880;5.632;2022-08-03T02:56:50;17.50;;;5.20;;
63536;SDS011;49686;51.880;5.632;2022-08-03T02:59:19;11.68;;;5.47;;
63536;SDS011;49686;51.880;5.632;2022-08-03T03:01:47;12.30;;;4.95;;
63536;SDS011;49686;51.880;5.632;2022-08-03T03:04:16;15.75;;;5.55;;
63536;SDS011;49686;51.880;5.632;2022-08-03T03:06:46;15.90;;;5.82;;
63536;SDS011;49686;51.880;5.632;2022-08-03T03:09:14;15.13;;;5.97;;
63536;SDS011;49686;51.880;5.632;2022-08-03T03:11:42;13.83;;;5.60;;
63536;SDS011;49686;51.880;5.632;2022-08-03T03:14:10;13.53;;;6.20;;
63536;SDS011;49686;51.880;5.632;2022-08-03T03:16:38;15.93;;;5.88;;
63536;SDS011;49686;51.880;5.632;2022-08-03T03:19:07;12.40;;;5.15;;
63536;SDS011;49686;51.880;5.632;2022-08-03T03:21:38;11.52;;;6.00;;
63536;SDS011;49686;51.880;5.632;2022-08-03T03:24:05;9.48;;;4.50;;
63536;SDS011;49686;51.880;5.632;2022-08-03T03:26:34;13.60;;;5.70;;
63536;SDS011;49686;51.880;5.632;2022-08-03T03:29:08;13.50;;;5.97;;
63536;SDS011;49686;51.880;5.632;2022-08-03T03:31:35;14.82;;;5.45;;
63536;SDS011;49686;51.880;5.632;2022-08-03T03:34:02;14.23;;;5.15;;
63536;SDS011;49686;51.880;5.632;2022-08-03T03:36:30;16.77;;;6.13;;
63536;SDS011;49686;51.880;5.632;2022-08-03T03:38:58;12.70;;;6.90;;
63536;SDS011;49686;51.880;5.632;2022-08-03T03:41:41;12.50;;;5.93;;
63536;SDS011;49686;51.880;5.632;2022-08-03T03:44:09;13.18;;;5.78;;
63536;SDS011;49686;51.880;5.632;2022-08-03T03:46:35;15.95;;;6.10;;
63536;SDS011;49686;51.880;5.632;2022-08-03T03:49:04;15.95;;;6.28;;
63536;SDS011;49686;51.880;5.632;2022-08-03T03:51:31;12.85;;;6.00;;
63536;SDS011;49686;51.880;5.632;2022-08-03T03:54:00;13.88;;;6.30;;
63536;SDS011;49686;51.880;5.632;2022-08-03T03:56:28;14.48;;;5.95;;
63536;SDS011;49686;51.880;5.632;2022-08-03T03:58:56;16.25;;;6.28;;
63536;SDS011;49686;51.880;5.632;2022-08-03T04:01:22;11.65;;;5.90;;
63536;SDS011;49686;51.880;5.632;2022-08-03T04:03:50;15.02;;;6.35;;
63536;SDS011;49686;51.880;5.632;2022-08-03T04:06:17;14.30;;;6.53;;
63536;SDS011;49686;51.880;5.632;2022-08-03T04:08:44;12.52;;;6.18;;
63536;SDS011;49686;51.880;5.632;2022-08-03T04:11:17;11.43;;;5.63;;
63536;SDS011;49686;51.880;5.632;2022-08-03T04:13:56;11.43;;;6.03;;
63536;SDS011;49686;51.880;5.632;2022-08-03T04:16:29;11.27;;;6.15;;
63536;SDS011;49686;51.880;5.632;2022-08-03T04:18:59;13.00;;;6.20;;
63536;SDS011;49686;51.880;5.632;2022-08-03T04:21:30;14.50;;;6.10;;
63536;SDS011;49686;51.880;5.632;2022-08-03T04:23:59;17.83;;;6.65;;
63536;SDS011;49686;51.880;5.632;2022-08-03T04:26:30;14.90;;;6.55;;
63536;SDS011;49686;51.880;5.632;2022-08-03T04:29:02;13.20;;;6.07;;
63536;SDS011;49686;51.880;5.632;2022-08-03T04:31:31;12.40;;;6.70;;
63536;SDS011;49686;51.880;5.632;2022-08-03T04:33:59;15.83;;;6.73;;
63536;SDS011;49686;51.880;5.632;2022-08-03T04:36:30;15.18;;;7.07;;
63536;SDS011;49686;51.880;5.632;2022-08-03T04:38:59;19.38;;;7.55;;
63536;SDS011;49686;51.880;5.632;2022-08-03T04:41:31;14.52;;;7.68;;
63536;SDS011;49686;51.880;5.632;2022-08-03T04:44:20;13.82;;;7.20;;
63536;SDS011;49686;51.880;5.632;2022-08-03T04:46:56;13.90;;;7.72;;
63536;SDS011;49686;51.880;5.632;2022-08-03T04:49:24;22.40;;;7.82;;
63536;SDS011;49686;51.880;5.632;2022-08-03T04:51:52;16.50;;;7.95;;
63536;SDS011;49686;51.880;5.632;2022-08-03T04:54:19;16.05;;;8.32;;
63536;SDS011;49686;51.880;5.632;2022-08-03T04:56:48;21.50;;;9.18;;
63536;SDS011;49686;51.880;5.632;2022-08-03T04:59:14;12.32;;;7.03;;
63536;SDS011;49686;51.880;5.632;2022-08-03T05:01:42;12.98;;;6.40;;
63536;SDS011;49686;51.880;5.632;2022-08-03T05:04:09;13.93;;;6.05;;
63536;SDS011;49686;51.880;5.632;2022-08-03T05:06:36;17.02;;;5.85;;
63536;SDS011;49686;51.880;5.632;2022-08-03T05:09:14;15.13;;;6.32;;
63536;SDS011;49686;51.880;5.632;2022-08-03T05:12:02;9.93;;;5.82;;
63536;SDS011;49686;51.880;5.632;2022-08-03T05:14:30;14.00;;;6.05;;
63536;SDS011;49686;51.880;5.632;2022-08-03T05:16:57;10.55;;;6.18;;
63536;SDS011;49686;51.880;5.632;2022-08-03T05:19:24;13.07;;;5.70;;
63536;SDS011;49686;51.880;5.632;2022-08-03T05:21:51;13.55;;;6.15;;
63536;SDS011;49686;51.880;5.632;2022-08-03T05:24:18;17.70;;;5.20;;
63536;SDS011;49686;51.880;5.632;2022-08-03T05:26:45;9.13;;;4.93;;
63536;SDS011;49686;51.880;5.632;2022-08-03T05:29:14;13.95;;;4.35;;
63536;SDS011;49686;51.880;5.632;2022-08-03T05:31:41;8.95;;;3.83;;
63536;SDS011;49686;51.880;5.632;2022-08-03T05:34:07;10.13;;;4.32;;
63536;SDS011;49686;51.880;5.632;2022-08-03T05:36:35;11.27;;;4.35;;
63536;SDS011;49686;51.880;5.632;2022-08-03T05:39:02;10.27;;;3.30;;
63536;SDS011;49686;51.880;5.632;2022-08-03T05:41:28;8.82;;;3.50;;
63536;SDS011;49686;51.880;5.632;2022-08-03T05:44:03;8.80;;;3.75;;
63536;SDS011;49686;51.880;5.632;2022-08-03T05:46:31;11.63;;;3.45;;
63536;SDS011;49686;51.880;5.632;2022-08-03T05:48:58;12.93;;;3.42;;
63536;SDS011;49686;51.880;5.632;2022-08-03T05:51:25;9.23;;;2.97;;
63536;SDS011;49686;51.880;5.632;2022-08-03T05:53:52;10.38;;;3.30;;
63536;SDS011;49686;51.880;5.632;2022-08-03T05:56:20;9.40;;;3.28;;
63536;SDS011;49686;51.880;5.632;2022-08-03T05:58:48;9.23;;;2.63;;
63536;SDS011;49686;51.880;5.632;2022-08-03T06:01:15;10.00;;;3.10;;
63536;SDS011;49686;51.880;5.632;2022-08-03T06:03:44;14.73;;;3.20;;
63536;SDS011;49686;51.880;5.632;2022-08-03T06:06:11;9.95;;;2.70;;
63536;SDS011;49686;51.880;5.632;2022-08-03T06:08:38;10.50;;;2.63;;
63536;SDS011;49686;51.880;5.632;2022-08-03T06:11:05;9.18;;;3.13;;
63536;SDS011;49686;51.880;5.632;2022-08-03T06:13:33;13.52;;;2.90;;
63536;SDS011;49686;51.880;5.632;2022-08-03T06:16:00;11.70;;;3.50;;
63536;SDS011;49686;51.880;5.632;2022-08-03T06:18:27;9.30;;;2.72;;
63536;SDS011;49686;51.880;5.632;2022-08-03T06:20:56;16.40;;;2.97;;
63536;SDS011;49686;51.880;5.632;2022-08-03T06:23:40;10.15;;;2.53;;
63536;SDS011;49686;51.880;5.632;2022-08-03T06:26:22;12.48;;;2.67;;
63536;SDS011;49686;51.880;5.632;2022-08-03T06:28:49;14.95;;;2.70;;
63536;SDS011;49686;51.880;5.632;2022-08-03T06:31:20;10.45;;;2.00;;
63536;SDS011;49686;51.880;5.632;2022-08-03T06:33:47;10.23;;;2.50;;
63536;SDS011;49686;51.880;5.632;2022-08-03T06:36:36;8.80;;;2.13;;
63536;SDS011;49686;51.880;5.632;2022-08-03T06:39:03;11.90;;;2.90;;
63536;SDS011;49686;51.880;5.632;2022-08-03T06:41:30;9.00;;;2.35;;
63536;SDS011;49686;51.880;5.632;2022-08-03T06:44:04;5.05;;;1.75;;
63536;SDS011;49686;51.880;5.632;2022-08-03T06:46:31;9.00;;;2.00;;
63536;SDS011;49686;51.880;5.632;2022-08-03T06:48:57;5.65;;;1.60;;
63536;SDS011;49686;51.880;5.632;2022-08-03T06:51:25;12.85;;;2.33;;
63536;SDS011;49686;51.880;5.632;2022-08-03T06:54:13;8.70;;;1.92;;
63536;SDS011;49686;51.880;5.632;2022-08-03T06:56:40;9.73;;;2.40;;
63536;SDS011;49686;51.880;5.632;2022-08-03T06:59:07;11.60;;;2.30;;
63536;SDS011;49686;51.880;5.632;2022-08-03T07:01:54;10.27;;;2.55;;
63536;SDS011;49686;51.880;5.632;2022-08-03T07:04:21;9.80;;;2.03;;
63536;SDS011;49686;51.880;5.632;2022-08-03T07:06:48;10.55;;;2.35;;
63536;SDS011;49686;51.880;5.632;2022-08-03T07:09:17;9.83;;;2.63;;
63536;SDS011;49686;51.880;5.632;2022-08-03T07:11:44;15.20;;;3.53;;
63536;SDS011;49686;51.880;5.632;2022-08-03T07:14:10;8.40;;;2.20;;
63536;SDS011;49686;51.880;5.632;2022-08-03T07:16:38;12.32;;;2.50;;
63536;SDS011;49686;51.880;5.632;2022-08-03T07:19:05;7.55;;;2.25;;
63536;SDS011;49686;51.880;5.632;2022-08-03T07:21:31;8.90;;;2.80;;
63536;SDS011;49686;51.880;5.632;2022-08-03T07:23:59;8.18;;;2.33;;
63536;SDS011;49686;51.880;5.632;2022-08-03T07:26:27;10.30;;;2.67;;
63536;SDS011;49686;51.880;5.632;2022-08-03T07:28:54;10.43;;;2.60;;
63536;SDS011;49686;51.880;5.632;2022-08-03T07:31:21;12.93;;;2.58;;
63536;SDS011;49686;51.880;5.632;2022-08-03T07:33:48;12.23;;;3.00;;
63536;SDS011;49686;51.880;5.632;2022-08-03T07:36:15;9.15;;;2.50;;
63536;SDS011;49686;51.880;5.632;2022-08-03T07:38:43;14.05;;;3.20;;
63536;SDS011;49686;51.880;5.632;2022-08-03T07:41:09;12.75;;;2.63;;
63536;SDS011;49686;51.880;5.632;2022-08-03T07:43:37;10.98;;;2.63;;
63536;SDS011;49686;51.880;5.632;2022-08-03T07:46:05;14.18;;;2.80;;
63536;SDS011;49686;51.880;5.632;2022-08-03T07:48:32;11.60;;;2.50;;
63536;SDS011;49686;51.880;5.632;2022-08-03T07:50:58;8.38;;;2.45;;
63536;SDS011;49686;51.880;5.632;2022-08-03T07:53:26;10.77;;;2.63;;
63536;SDS011;49686;51.880;5.632;2022-08-03T07:55:53;11.13;;;2.30;;
63536;SDS011;49686;51.880;5.632;2022-08-03T07:58:19;11.43;;;2.55;;
63536;SDS011;49686;51.880;5.632;2022-08-03T08:00:51;11.82;;;2.20;;
63536;SDS011;49686;51.880;5.632;2022-08-03T08:03:18;13.02;;;2.90;;
63536;SDS011;49686;51.880;5.632;2022-08-03T08:05:45;12.95;;;2.28;;
63536;SDS011;49686;51.880;5.632;2022-08-03T08:08:13;10.00;;;2.53;;
63536;SDS011;49686;51.880;5.632;2022-08-03T08:10:40;10.85;;;2.30;;
63536;SDS011;49686;51.880;5.632;2022-08-03T08:13:22;12.85;;;2.20;;
63536;SDS011;49686;51.880;5.632;2022-08-03T08:15:49;8.38;;;1.95;;
63536;SDS011;49686;51.880;5.632;2022-08-03T08:18:17;12.15;;;2.58;;
63536;SDS011;49686;51.880;5.632;2022-08-03T08:20:45;11.43;;;2.70;;
63536;SDS011;49686;51.880;5.632;2022-08-03T08:23:12;14.38;;;2.38;;
63536;SDS011;49686;51.880;5.632;2022-08-03T08:25:59;10.40;;;2.67;;
63536;SDS011;49686;51.880;5.632;2022-08-03T08:28:26;17.42;;;2.50;;
63536;SDS011;49686;51.880;5.632;2022-08-03T08:31:00;12.27;;;3.30;;
63536;SDS011;49686;51.880;5.632;2022-08-03T08:33:27;16.90;;;2.70;;
63536;SDS011;49686;51.880;5.632;2022-08-03T08:36:15;13.85;;;3.15;;
63536;SDS011;49686;51.880;5.632;2022-08-03T08:38:42;14.40;;;3.13;;
63536;SDS011;49686;51.880;5.632;2022-08-03T08:41:09;9.38;;;2.38;;
63536;SDS011;49686;51.880;5.632;2022-08-03T08:43:37;12.75;;;2.80;;
63536;SDS011;49686;51.880;5.632;2022-08-03T08:46:06;16.95;;;3.17;;
63536;SDS011;49686;51.880;5.632;2022-08-03T08:48:38;11.73;;;2.72;;
63536;SDS011;49686;51.880;5.632;2022-08-03T08:51:07;8.15;;;2.05;;
63536;SDS011;49686;51.880;5.632;2022-08-03T08:53:36;15.55;;;2.45;;
63536;SDS011;49686;51.880;5.632;2022-08-03T08:56:10;14.70;;;3.30;;
63536;SDS011;49686;51.880;5.632;2022-08-03T08:58:41;20.70;;;2.70;;
63536;SDS011;49686;51.880;5.632;2022-08-03T09:01:15;11.35;;;2.50;;
63536;SDS011;49686;51.880;5.632;2022-08-03T09:03:43;13.02;;;2.47;;
63536;SDS011;49686;51.880;5.632;2022-08-03T09:06:10;10.15;;;2.03;;
63536;SDS011;49686;51.880;5.632;2022-08-03T09:08:38;10.80;;;2.05;;
63536;SDS011;49686;51.880;5.632;2022-08-03T09:11:04;14.68;;;2.33;;
63536;SDS011;49686;51.880;5.632;2022-08-03T09:13:33;11.70;;;2.22;;
63536;SDS011;49686;51.880;5.632;2022-08-03T09:16:11;15.40;;;2.63;;
63536;SDS011;49686;51.880;5.632;2022-08-03T09:18:40;15.32;;;2.55;;
63536;SDS011;49686;51.880;5.632;2022-08-03T09:21:12;20.10;;;2.45;;
63536;SDS011;49686;51.880;5.632;2022-08-03T09:23:57;12.07;;;2.33;;
63536;SDS011;49686;51.880;5.632;2022-08-03T09:26:29;14.27;;;2.42;;
63536;SDS011;49686;51.880;5.632;2022-08-03T09:28:58;13.48;;;2.33;;
63536;SDS011;49686;51.880;5.632;2022-08-03T09:31:33;16.50;;;2.47;;
63536;SDS011;49686;51.880;5.632;2022-08-03T09:34:03;7.35;;;1.73;;
63536;SDS011;49686;51.880;5.632;2022-08-03T09:36:38;18.77;;;2.80;;
63536;SDS011;49686;51.880;5.632;2022-08-03T09:39:08;16.65;;;2.50;;
63536;SDS011;49686;51.880;5.632;2022-08-03T09:41:37;14.70;;;2.45;;
63536;SDS011;49686;51.880;5.632;2022-08-03T09:44:04;15.70;;;2.72;;
63536;SDS011;49686;51.880;5.632;2022-08-03T09:46:46;16.50;;;2.50;;
63536;SDS011;49686;51.880;5.632;2022-08-03T09:49:16;13.07;;;2.40;;
63536;SDS011;49686;51.880;5.632;2022-08-03T09:51:44;16.67;;;2.40;;
63536;SDS011;49686;51.880;5.632;2022-08-03T09:54:31;11.93;;;2.00;;
63536;SDS011;49686;51.880;5.632;2022-08-03T09:56:58;9.93;;;1.90;;
63536;SDS011;49686;51.880;5.632;2022-08-03T09:59:26;14.75;;;2.60;;
63536;SDS011;49686;51.880;5.632;2022-08-03T10:01:54;15.15;;;2.47;;
63536;SDS011;49686;51.880;5.632;2022-08-03T10:04:24;18.63;;;2.80;;
63536;SDS011;49686;51.880;5.632;2022-08-03T10:07:01;12.20;;;1.95;;
63536;SDS011;49686;51.880;5.632;2022-08-03T10:09:31;10.30;;;2.30;;
63536;SDS011;49686;51.880;5.632;2022-08-03T10:12:05;13.65;;;2.45;;
63536;SDS011;49686;51.880;5.632;2022-08-03T10:14:35;16.80;;;2.60;;
63536;SDS011;49686;51.880;5.632;2022-08-03T10:19:31;16.67;;;3.00;;
63536;SDS011;49686;51.880;5.632;2022-08-03T10:22:00;15.77;;;2.10;;
63536;SDS011;49686;51.880;5.632;2022-08-03T10:24:29;11.55;;;2.50;;
63536;SDS011;49686;51.880;5.632;2022-08-03T10:27:01;14.48;;;2.40;;
63536;SDS011;49686;51.880;5.632;2022-08-03T10:29:31;14.13;;;2.47;;
63536;SDS011;49686;51.880;5.632;2022-08-03T10:32:05;13.05;;;2.42;;
63536;SDS011;49686;51.880;5.632;2022-08-03T10:34:37;18.58;;;2.75;;
63536;SDS011;49686;51.880;5.632;2022-08-03T10:37:10;7.63;;;1.70;;
63536;SDS011;49686;51.880;5.632;2022-08-03T10:39:41;11.75;;;2.00;;
63536;SDS011;49686;51.880;5.632;2022-08-03T10:42:10;13.30;;;2.28;;
63536;SDS011;49686;51.880;5.632;2022-08-03T10:44:40;9.95;;;1.92;;
63536;SDS011;49686;51.880;5.632;2022-08-03T10:47:08;10.57;;;2.05;;
63536;SDS011;49686;51.880;5.632;2022-08-03T10:49:37;14.27;;;2.45;;
63536;SDS011;49686;51.880;5.632;2022-08-03T10:52:04;11.45;;;2.45;;
63536;SDS011;49686;51.880;5.632;2022-08-03T10:54:52;14.75;;;2.33;;
63536;SDS011;49686;51.880;5.632;2022-08-03T11:00:16;14.02;;;2.40;;
63536;SDS011;49686;51.880;5.632;2022-08-03T11:05:43;8.73;;;2.35;;
63536;SDS011;49686;51.880;5.632;2022-08-03T11:11:00;10.82;;;2.15;;
63536;SDS011;49686;51.880;5.632;2022-08-03T11:13:29;8.60;;;1.90;;
63536;SDS011;49686;51.880;5.632;2022-08-03T11:15:57;9.82;;;2.20;;
63536;SDS011;49686;51.880;5.632;2022-08-03T11:18:33;7.93;;;1.77;;
63536;SDS011;49686;51.880;5.632;2022-08-03T11:21:02;12.30;;;2.25;;
63536;SDS011;49686;51.880;5.632;2022-08-03T11:23:40;13.13;;;2.22;;
63536;SDS011;49686;51.880;5.632;2022-08-03T11:26:31;13.27;;;2.58;;
63536;SDS011;49686;51.880;5.632;2022-08-03T11:31:53;12.25;;;1.90;;
63536;SDS011;49686;51.880;5.632;2022-08-03T11:34:20;5.82;;;1.65;;
63536;SDS011;49686;51.880;5.632;2022-08-03T11:39:50;6.57;;;1.52;;
63536;SDS011;49686;51.880;5.632;2022-08-03T11:45:06;13.38;;;1.95;;
63536;SDS011;49686;51.880;5.632;2022-08-03T11:47:35;10.65;;;1.90;;
63536;SDS011;49686;51.880;5.632;2022-08-03T11:50:18;13.13;;;2.20;;
63536;SDS011;49686;51.880;5.632;2022-08-03T11:52:47;11.77;;;1.98;;
63536;SDS011;49686;51.880;5.632;2022-08-03T11:55:15;10.85;;;2.17;;
63536;SDS011;49686;51.880;5.632;2022-08-03T11:57:44;13.10;;;2.15;;
63536;SDS011;49686;51.880;5.632;2022-08-03T12:00:31;8.57;;;1.65;;
63536;SDS011;49686;51.880;5.632;2022-08-03T12:03:03;9.93;;;1.80;;
63536;SDS011;49686;51.880;5.632;2022-08-03T12:05:32;11.10;;;1.98;;
63536;SDS011;49686;51.880;5.632;2022-08-03T12:08:02;9.50;;;1.63;;
63536;SDS011;49686;51.880;5.632;2022-08-03T12:10:32;6.43;;;1.92;;
63536;SDS011;49686;51.880;5.632;2022-08-03T12:12:59;8.70;;;1.87;;
63536;SDS011;49686;51.880;5.632;2022-08-03T12:15:29;9.35;;;1.90;;
63536;SDS011;49686;51.880;5.632;2022-08-03T12:17:57;13.43;;;1.88;;
63536;SDS011;49686;51.880;5.632;2022-08-03T12:20:24;14.07;;;2.35;;
63536;SDS011;49686;51.880;5.632;2022-08-03T12:23:02;13.10;;;1.92;;
63536;SDS011;49686;51.880;5.632;2022-08-03T12:25:31;7.15;;;1.30;;
63536;SDS011;49686;51.880;5.632;2022-08-03T12:28:07;7.97;;;1.90;;
63536;SDS011;49686;51.880;5.632;2022-08-03T12:30:59;4.88;;;1.33;;
63536;SDS011;49686;51.880;5.632;2022-08-03T12:33:28;10.13;;;1.83;;
63536;SDS011;49686;51.880;5.632;2022-08-03T12:36:02;8.07;;;1.58;;
63536;SDS011;49686;51.880;5.632;2022-08-03T12:38:33;7.30;;;1.33;;
63536;SDS011;49686;51.880;5.632;2022-08-03T12:41:05;9.75;;;1.30;;
63536;SDS011;49686;51.880;5.632;2022-08-03T12:43:35;9.18;;;1.63;;
63536;SDS011;49686;51.880;5.632;2022-08-03T12:46:09;10.38;;;1.55;;
63536;SDS011;49686;51.880;5.632;2022-08-03T12:51:26;7.10;;;1.50;;
63536;SDS011;49686;51.880;5.632;2022-08-03T12:53:56;8.75;;;1.77;;
63536;SDS011;49686;51.880;5.632;2022-08-03T12:56:23;7.75;;;1.55;;
63536;SDS011;49686;51.880;5.632;2022-08-03T12:58:51;8.38;;;1.70;;
63536;SDS011;49686;51.880;5.632;2022-08-03T13:01:19;8.40;;;1.27;;
63536;SDS011;49686;51.880;5.632;2022-08-03T13:03:48;6.45;;;1.40;;
63536;SDS011;49686;51.880;5.632;2022-08-03T13:06:19;5.75;;;1.48;;
63536;SDS011;49686;51.880;5.632;2022-08-03T13:08:47;7.13;;;1.52;;
63536;SDS011;49686;51.880;5.632;2022-08-03T13:11:20;8.02;;;1.40;;
63536;SDS011;49686;51.880;5.632;2022-08-03T13:14:09;6.65;;;1.50;;
63536;SDS011;49686;51.880;5.632;2022-08-03T13:16:42;6.13;;;1.55;;
63536;SDS011;49686;51.880;5.632;2022-08-03T13:19:09;8.27;;;1.48;;
63536;SDS011;49686;51.880;5.632;2022-08-03T13:21:41;3.88;;;1.15;;
63536;SDS011;49686;51.880;5.632;2022-08-03T13:24:28;4.55;;;1.20;;
63536;SDS011;49686;51.880;5.632;2022-08-03T13:26:58;7.50;;;1.20;;
63536;SDS011;49686;51.880;5.632;2022-08-03T13:29:25;3.53;;;1.27;;
63536;SDS011;49686;51.880;5.632;2022-08-03T13:31:52;6.45;;;1.83;;
63536;SDS011;49686;51.880;5.632;2022-08-03T13:34:19;7.32;;;1.40;;
63536;SDS011;49686;51.880;5.632;2022-08-03T13:36:49;6.55;;;1.30;;
63536;SDS011;49686;51.880;5.632;2022-08-03T13:39:37;9.95;;;1.20;;
63536;SDS011;49686;51.880;5.632;2022-08-03T13:42:25;5.18;;;1.10;;
63536;SDS011;49686;51.880;5.632;2022-08-03T13:44:53;6.25;;;1.20;;
63536;SDS011;49686;51.880;5.632;2022-08-03T13:47:20;3.88;;;1.45;;
63536;SDS011;49686;51.880;5.632;2022-08-03T13:49:48;4.18;;;1.20;;
63536;SDS011;49686;51.880;5.632;2022-08-03T13:52:28;8.35;;;1.27;;
63536;SDS011;49686;51.880;5.632;2022-08-03T13:54:56;4.82;;;1.60;;
63536;SDS011;49686;51.880;5.632;2022-08-03T13:57:23;4.72;;;1.40;;
63536;SDS011;49686;51.880;5.632;2022-08-03T14:00:13;5.65;;;1.50;;
63536;SDS011;49686;51.880;5.632;2022-08-03T14:02:53;6.13;;;1.58;;
63536;SDS011;49686;51.880;5.632;2022-08-03T14:05:30;5.22;;;1.58;;
63536;SDS011;49686;51.880;5.632;2022-08-03T14:07:57;8.43;;;1.38;;
63536;SDS011;49686;51.880;5.632;2022-08-03T14:10:30;5.35;;;1.23;;
63536;SDS011;49686;51.880;5.632;2022-08-03T14:12:58;3.15;;;1.27;;
63536;SDS011;49686;51.880;5.632;2022-08-03T14:15:25;6.28;;;1.33;;
63536;SDS011;49686;51.880;5.632;2022-08-03T14:17:53;3.85;;;1.20;;
63536;SDS011;49686;51.880;5.632;2022-08-03T14:20:20;7.33;;;1.30;;
63536;SDS011;49686;51.880;5.632;2022-08-03T14:23:04;3.05;;;0.95;;
63536;SDS011;49686;51.880;5.632;2022-08-03T14:25:31;5.35;;;1.35;;
63536;SDS011;49686;51.880;5.632;2022-08-03T14:28:19;6.45;;;1.30;;
63536;SDS011;49686;51.880;5.632;2022-08-03T14:30:48;3.63;;;1.10;;
63536;SDS011;49686;51.880;5.632;2022-08-03T14:33:15;3.75;;;1.02;;
63536;SDS011;49686;51.880;5.632;2022-08-03T14:35:43;5.93;;;1.30;;
63536;SDS011;49686;51.880;5.632;2022-08-03T14:38:09;4.13;;;1.58;;
63536;SDS011;49686;51.880;5.632;2022-08-03T14:40:36;2.60;;;0.93;;
63536;SDS011;49686;51.880;5.632;2022-08-03T14:43:04;3.10;;;1.30;;
63536;SDS011;49686;51.880;5.632;2022-08-03T14:45:32;5.97;;;1.38;;
63536;SDS011;49686;51.880;5.632;2022-08-03T14:47:59;2.47;;;1.00;;
63536;SDS011;49686;51.880;5.632;2022-08-03T14:50:46;4.22;;;1.58;;
63536;SDS011;49686;51.880;5.632;2022-08-03T14:53:17;2.83;;;0.88;;
63536;SDS011;49686;51.880;5.632;2022-08-03T14:55:44;3.50;;;1.53;;
63536;SDS011;49686;51.880;5.632;2022-08-03T14:58:17;5.93;;;1.42;;
63536;SDS011;49686;51.880;5.632;2022-08-03T15:00:48;3.17;;;1.30;;
63536;SDS011;49686;51.880;5.632;2022-08-03T15:03:15;5.28;;;1.27;;
63536;SDS011;49686;51.880;5.632;2022-08-03T15:08:10;4.75;;;1.45;;
63536;SDS011;49686;51.880;5.632;2022-08-03T15:10:38;6.07;;;1.70;;
63536;SDS011;49686;51.880;5.632;2022-08-03T15:13:11;4.40;;;1.60;;
63536;SDS011;49686;51.880;5.632;2022-08-03T15:15:38;7.10;;;1.30;;
63536;SDS011;49686;51.880;5.632;2022-08-03T15:18:07;5.45;;;1.50;;
63536;SDS011;49686;51.880;5.632;2022-08-03T15:20:34;5.13;;;1.17;;
63536;SDS011;49686;51.880;5.632;2022-08-03T15:23:11;8.20;;;1.85;;
63536;SDS011;49686;51.880;5.632;2022-08-03T15:25:39;6.00;;;1.42;;
63536;SDS011;49686;51.880;5.632;2022-08-03T15:28:26;7.53;;;1.48;;